sensor_id;sensor_type;location;lat;lon;timestamp;temperature;humidity
66586;SHT30;53444;45.822;16.092;2023-09-08T00:01:07;17.38;80.25
66586;SHT30;53444;45.822;16.092;2023-09-08T00:03:34;17.80;79.00
66586;SHT30;53444;45.822;16.092;2023-09-08T00:06:01;17.80;78.64
66586;SHT30;53444;45.822;16.092;2023-09-08T00:08:27;18.03;78.23
66586;SHT30;53444;45.822;16.092;2023-09-08T00:10:54;18.14;77.82
66586;SHT30;53444;45.822;16.092;2023-09-08T00:13:20;18.40;77.05
66586;SHT30;53444;45.822;16.092;2023-09-08T00:15:47;18.40;76.83
66586;SHT30;53444;45.822;16.092;2023-09-08T00:18:15;18.50;76.67
66586;SHT30;53444;45.822;16.092;2023-09-08T00:20:42;18.54;76.63
66586;SHT30;53444;45.822;16.092;2023-09-08T00:23:08;18.64;76.51
66586;SHT30;53444;45.822;16.092;2023-09-08T00:25:35;18.58;76.53
66586;SHT30;53444;45.822;16.092;2023-09-08T00:28:02;18.36;77.27
66586;SHT30;53444;45.822;16.092;2023-09-08T00:30:28;17.94;78.81
66586;SHT30;53444;45.822;16.092;2023-09-08T00:32:55;17.86;79.06
66586;SHT30;53444;45.822;16.092;2023-09-08T00:35:23;17.38;80.79
66586;SHT30;53444;45.822;16.092;2023-09-08T00:37:49;17.39;81.01
66586;SHT30;53444;45.822;16.092;2023-09-08T00:40:16;17.38;80.84
66586;SHT30;53444;45.822;16.092;2023-09-08T00:42:43;17.38;81.11
66586;SHT30;53444;45.822;16.092;2023-09-08T00:45:09;17.73;80.01
66586;SHT30;53444;45.822;16.092;2023-09-08T00:47:36;17.93;79.48
66586;SHT30;53444;45.822;16.092;2023-09-08T00:50:03;18.04;79.13
66586;SHT30;53444;45.822;16.092;2023-09-08T00:52:32;17.87;79.72
66586;SHT30;53444;45.822;16.092;2023-09-08T00:54:59;18.07;79.28
66586;SHT30;53444;45.822;16.092;2023-09-08T00:57:26;18.26;78.59
66586;SHT30;53444;45.822;16.092;2023-09-08T00:59:53;18.30;78.37
66586;SHT30;53444;45.822;16.092;2023-09-08T01:02:20;18.34;78.21
66586;SHT30;53444;45.822;16.092;2023-09-08T01:04:47;18.34;78.46
66586;SHT30;53444;45.822;16.092;2023-09-08T01:07:14;18.33;78.48
66586;SHT30;53444;45.822;16.092;2023-09-08T01:09:43;18.24;78.74
66586;SHT30;53444;45.822;16.092;2023-09-08T01:12:11;18.18;78.82
66586;SHT30;53444;45.822;16.092;2023-09-08T01:14:37;18.09;79.05
66586;SHT30;53444;45.822;16.092;2023-09-08T01:17:04;17.78;80.24
66586;SHT30;53444;45.822;16.092;2023-09-08T01:19:30;17.96;79.65
66586;SHT30;53444;45.822;16.092;2023-09-08T01:22:37;17.89;79.56
66586;SHT30;53444;45.822;16.092;2023-09-08T01:25:24;17.93;79.54
66586;SHT30;53444;45.822;16.092;2023-09-08T01:27:53;17.96;79.56
66586;SHT30;53444;45.822;16.092;2023-09-08T01:30:21;17.93;79.55
66586;SHT30;53444;45.822;16.092;2023-09-08T01:32:48;17.83;79.91
66586;SHT30;53444;45.822;16.092;2023-09-08T01:35:15;17.83;80.08
66586;SHT30;53444;45.822;16.092;2023-09-08T01:37:44;17.80;80.22
66586;SHT30;53444;45.822;16.092;2023-09-08T01:40:11;17.82;80.04
66586;SHT30;53444;45.822;16.092;2023-09-08T01:42:39;17.96;79.74
66586;SHT30;53444;45.822;16.092;2023-09-08T01:45:07;18.02;79.55
66586;SHT30;53444;45.822;16.092;2023-09-08T01:47:34;18.04;79.41
66586;SHT30;53444;45.822;16.092;2023-09-08T01:50:01;18.04;79.20
66586;SHT30;53444;45.822;16.092;2023-09-08T01:52:28;17.87;79.79
66586;SHT30;53444;45.822;16.092;2023-09-08T01:54:54;17.79;80.01
66586;SHT30;53444;45.822;16.092;2023-09-08T01:57:21;17.78;80.05
66586;SHT30;53444;45.822;16.092;2023-09-08T01:59:49;17.66;80.62
66586;SHT30;53444;45.822;16.092;2023-09-08T02:02:15;17.83;79.91
66586;SHT30;53444;45.822;16.092;2023-09-08T02:04:42;17.83;79.88
66586;SHT30;53444;45.822;16.092;2023-09-08T02:07:09;17.87;79.67
66586;SHT30;53444;45.822;16.092;2023-09-08T02:09:36;17.62;80.56
66586;SHT30;53444;45.822;16.092;2023-09-08T02:12:04;17.38;81.31
66586;SHT30;53444;45.822;16.092;2023-09-08T02:14:30;17.41;81.30
66586;SHT30;53444;45.822;16.092;2023-09-08T02:16:58;17.36;81.31
66586;SHT30;53444;45.822;16.092;2023-09-08T02:19:25;17.34;81.46
66586;SHT30;53444;45.822;16.092;2023-09-08T02:21:52;17.48;81.23
66586;SHT30;53444;45.822;16.092;2023-09-08T02:24:18;17.53;81.07
66586;SHT30;53444;45.822;16.092;2023-09-08T02:26:45;17.41;81.56
66586;SHT30;53444;45.822;16.092;2023-09-08T02:29:11;17.27;82.05
66586;SHT30;53444;45.822;16.092;2023-09-08T02:31:38;17.31;81.86
66586;SHT30;53444;45.822;16.092;2023-09-08T02:34:06;17.45;81.47
66586;SHT30;53444;45.822;16.092;2023-09-08T02:36:32;17.34;81.81
66586;SHT30;53444;45.822;16.092;2023-09-08T02:38:59;17.38;81.74
66586;SHT30;53444;45.822;16.092;2023-09-08T02:41:26;17.38;81.37
66586;SHT30;53444;45.822;16.092;2023-09-08T02:43:52;17.41;81.28
66586;SHT30;53444;45.822;16.092;2023-09-08T02:46:19;17.18;82.19
66586;SHT30;53444;45.822;16.092;2023-09-08T02:48:45;17.36;81.70
66586;SHT30;53444;45.822;16.092;2023-09-08T02:51:13;17.25;82.30
66586;SHT30;53444;45.822;16.092;2023-09-08T02:53:40;17.18;82.48
66586;SHT30;53444;45.822;16.092;2023-09-08T02:56:06;17.32;82.04
66586;SHT30;53444;45.822;16.092;2023-09-08T02:58:34;17.27;82.39
66586;SHT30;53444;45.822;16.092;2023-09-08T03:01:09;17.27;82.20
66586;SHT30;53444;45.822;16.092;2023-09-08T03:03:37;17.27;82.10
66586;SHT30;53444;45.822;16.092;2023-09-08T03:06:03;17.34;81.67
66586;SHT30;53444;45.822;16.092;2023-09-08T03:08:45;17.45;81.45
66586;SHT30;53444;45.822;16.092;2023-09-08T03:11:12;17.41;81.52
66586;SHT30;53444;45.822;16.092;2023-09-08T03:13:39;17.53;80.96
66586;SHT30;53444;45.822;16.092;2023-09-08T03:16:06;17.49;81.10
66586;SHT30;53444;45.822;16.092;2023-09-08T03:18:34;17.55;80.70
66586;SHT30;53444;45.822;16.092;2023-09-08T03:21:01;17.59;80.43
66586;SHT30;53444;45.822;16.092;2023-09-08T03:23:34;17.65;80.14
66586;SHT30;53444;45.822;16.092;2023-09-08T03:26:02;17.31;82.01
66586;SHT30;53444;45.822;16.092;2023-09-08T03:28:28;17.17;82.87
66586;SHT30;53444;45.822;16.092;2023-09-08T03:30:55;17.21;82.53
66586;SHT30;53444;45.822;16.092;2023-09-08T03:33:22;16.91;83.42
66586;SHT30;53444;45.822;16.092;2023-09-08T03:35:48;16.91;83.34
66586;SHT30;53444;45.822;16.092;2023-09-08T03:38:15;16.84;83.26
66586;SHT30;53444;45.822;16.092;2023-09-08T03:40:41;16.92;82.89
66586;SHT30;53444;45.822;16.092;2023-09-08T03:43:10;16.76;83.48
66586;SHT30;53444;45.822;16.092;2023-09-08T03:45:36;16.81;83.39
66586;SHT30;53444;45.822;16.092;2023-09-08T03:48:03;16.73;83.60
66586;SHT30;53444;45.822;16.092;2023-09-08T03:50:30;16.78;83.42
66586;SHT30;53444;45.822;16.092;2023-09-08T03:52:57;16.69;83.69
66586;SHT30;53444;45.822;16.092;2023-09-08T03:55:24;16.77;83.60
66586;SHT30;53444;45.822;16.092;2023-09-08T03:57:50;16.76;83.51
66586;SHT30;53444;45.822;16.092;2023-09-08T04:00:19;16.84;83.17
66586;SHT30;53444;45.822;16.092;2023-09-08T04:02:47;16.71;83.49
66586;SHT30;53444;45.822;16.092;2023-09-08T04:05:14;16.63;83.71
66586;SHT30;53444;45.822;16.092;2023-09-08T04:07:41;16.80;83.21
66586;SHT30;53444;45.822;16.092;2023-09-08T04:10:10;16.85;82.94
66586;SHT30;53444;45.822;16.092;2023-09-08T04:12:40;16.90;82.73
66586;SHT30;53444;45.822;16.092;2023-09-08T04:15:08;16.81;82.65
66586;SHT30;53444;45.822;16.092;2023-09-08T04:17:40;16.80;82.66
66586;SHT30;53444;45.822;16.092;2023-09-08T04:20:07;16.90;82.08
66586;SHT30;53444;45.822;16.092;2023-09-08T04:22:34;16.91;81.70
66586;SHT30;53444;45.822;16.092;2023-09-08T04:25:07;16.76;81.70
66586;SHT30;53444;45.822;16.092;2023-09-08T04:27:33;16.97;81.26
66586;SHT30;53444;45.822;16.092;2023-09-08T04:30:03;16.88;80.97
66586;SHT30;53444;45.822;16.092;2023-09-08T04:32:30;16.84;80.56
66586;SHT30;53444;45.822;16.092;2023-09-08T04:34:58;16.70;80.96
66586;SHT30;53444;45.822;16.092;2023-09-08T04:37:32;16.53;81.23
66586;SHT30;53444;45.822;16.092;2023-09-08T04:39:59;16.61;81.01
66586;SHT30;53444;45.822;16.092;2023-09-08T04:42:28;16.84;80.58
66586;SHT30;53444;45.822;16.092;2023-09-08T04:44:56;16.92;80.32
66586;SHT30;53444;45.822;16.092;2023-09-08T04:47:34;16.95;80.62
66586;SHT30;53444;45.822;16.092;2023-09-08T04:50:03;17.01;80.57
66586;SHT30;53444;45.822;16.092;2023-09-08T04:52:32;17.07;80.55
66586;SHT30;53444;45.822;16.092;2023-09-08T04:54:59;17.06;80.71
66586;SHT30;53444;45.822;16.092;2023-09-08T04:57:25;17.11;80.78
66586;SHT30;53444;45.822;16.092;2023-09-08T04:59:55;17.10;80.91
66586;SHT30;53444;45.822;16.092;2023-09-08T05:02:41;17.01;81.16
66586;SHT30;53444;45.822;16.092;2023-09-08T05:05:15;17.11;80.71
66586;SHT30;53444;45.822;16.092;2023-09-08T05:07:45;17.04;81.10
66586;SHT30;53444;45.822;16.092;2023-09-08T05:10:22;16.98;81.47
66586;SHT30;53444;45.822;16.092;2023-09-08T05:12:52;17.15;81.02
66586;SHT30;53444;45.822;16.092;2023-09-08T05:15:18;17.07;81.29
66586;SHT30;53444;45.822;16.092;2023-09-08T05:17:46;17.12;80.74
66586;SHT30;53444;45.822;16.092;2023-09-08T05:20:22;17.11;80.88
66586;SHT30;53444;45.822;16.092;2023-09-08T05:22:50;16.87;81.93
66586;SHT30;53444;45.822;16.092;2023-09-08T05:25:19;17.15;81.09
66586;SHT30;53444;45.822;16.092;2023-09-08T05:27:46;16.91;81.82
66586;SHT30;53444;45.822;16.092;2023-09-08T05:30:14;16.81;82.02
66586;SHT30;53444;45.822;16.092;2023-09-08T05:32:44;16.73;82.37
66586;SHT30;53444;45.822;16.092;2023-09-08T05:35:15;17.04;81.35
66586;SHT30;53444;45.822;16.092;2023-09-08T05:37:42;17.17;81.34
66586;SHT30;53444;45.822;16.092;2023-09-08T05:40:19;17.32;80.53
66586;SHT30;53444;45.822;16.092;2023-09-08T05:42:51;17.52;79.69
66586;SHT30;53444;45.822;16.092;2023-09-08T05:45:21;17.62;79.25
66586;SHT30;53444;45.822;16.092;2023-09-08T05:47:47;17.39;80.83
66586;SHT30;53444;45.822;16.092;2023-09-08T05:50:17;17.45;80.39
66586;SHT30;53444;45.822;16.092;2023-09-08T05:52:44;17.56;79.58
66586;SHT30;53444;45.822;16.092;2023-09-08T05:55:10;17.52;79.82
66586;SHT30;53444;45.822;16.092;2023-09-08T05:57:37;17.69;78.22
66586;SHT30;53444;45.822;16.092;2023-09-08T06:00:04;17.69;78.36
66586;SHT30;53444;45.822;16.092;2023-09-08T06:02:32;17.80;78.97
66586;SHT30;53444;45.822;16.092;2023-09-08T06:04:58;17.63;78.62
66586;SHT30;53444;45.822;16.092;2023-09-08T06:07:27;17.78;78.57
66586;SHT30;53444;45.822;16.092;2023-09-08T06:09:53;17.94;78.18
66586;SHT30;53444;45.822;16.092;2023-09-08T06:12:20;18.14;77.49
66586;SHT30;53444;45.822;16.092;2023-09-08T06:14:48;17.86;77.86
66586;SHT30;53444;45.822;16.092;2023-09-08T06:17:21;17.85;78.08
66586;SHT30;53444;45.822;16.092;2023-09-08T06:19:48;18.26;76.82
66586;SHT30;53444;45.822;16.092;2023-09-08T06:22:14;18.47;75.79
66586;SHT30;53444;45.822;16.092;2023-09-08T06:24:42;18.40;76.33
66586;SHT30;53444;45.822;16.092;2023-09-08T06:27:09;18.72;75.76
66586;SHT30;53444;45.822;16.092;2023-09-08T06:29:36;18.98;75.81
66586;SHT30;53444;45.822;16.092;2023-09-08T06:32:07;18.78;76.81
66586;SHT30;53444;45.822;16.092;2023-09-08T06:34:34;19.02;76.84
66586;SHT30;53444;45.822;16.092;2023-09-08T06:37:00;19.20;76.43
66586;SHT30;53444;45.822;16.092;2023-09-08T06:39:27;19.19;76.53
66586;SHT30;53444;45.822;16.092;2023-09-08T06:41:55;19.11;77.82
66586;SHT30;53444;45.822;16.092;2023-09-08T06:44:22;19.19;77.65
66586;SHT30;53444;45.822;16.092;2023-09-08T06:47:06;19.05;78.29
66586;SHT30;53444;45.822;16.092;2023-09-08T06:49:33;19.25;77.96
66586;SHT30;53444;45.822;16.092;2023-09-08T06:52:02;19.18;77.94
66586;SHT30;53444;45.822;16.092;2023-09-08T06:54:29;19.43;78.17
66586;SHT30;53444;45.822;16.092;2023-09-08T06:56:57;19.76;76.83
66586;SHT30;53444;45.822;16.092;2023-09-08T06:59:23;19.88;76.38
66586;SHT30;53444;45.822;16.092;2023-09-08T07:01:50;19.80;77.09
66586;SHT30;53444;45.822;16.092;2023-09-08T07:04:16;19.71;77.68
66586;SHT30;53444;45.822;16.092;2023-09-08T07:06:43;19.81;77.53
66586;SHT30;53444;45.822;16.092;2023-09-08T07:09:11;19.85;77.31
66586;SHT30;53444;45.822;16.092;2023-09-08T07:11:38;19.93;77.77
66586;SHT30;53444;45.822;16.092;2023-09-08T07:14:06;19.98;77.96
66586;SHT30;53444;45.822;16.092;2023-09-08T07:16:33;20.03;77.42
66586;SHT30;53444;45.822;16.092;2023-09-08T07:19:01;20.04;77.11
66586;SHT30;53444;45.822;16.092;2023-09-08T07:21:28;20.10;77.41
66586;SHT30;53444;45.822;16.092;2023-09-08T07:23:54;20.32;76.60
66586;SHT30;53444;45.822;16.092;2023-09-08T07:26:21;20.42;76.28
66586;SHT30;53444;45.822;16.092;2023-09-08T07:28:47;20.55;75.60
66586;SHT30;53444;45.822;16.092;2023-09-08T07:31:16;20.65;75.07
66586;SHT30;53444;45.822;16.092;2023-09-08T07:33:43;20.72;75.07
66586;SHT30;53444;45.822;16.092;2023-09-08T07:36:10;20.86;74.82
66586;SHT30;53444;45.822;16.092;2023-09-08T07:38:37;21.13;74.60
66586;SHT30;53444;45.822;16.092;2023-09-08T07:41:03;21.33;73.60
66586;SHT30;53444;45.822;16.092;2023-09-08T07:43:30;21.50;74.67
66586;SHT30;53444;45.822;16.092;2023-09-08T07:45:56;21.58;73.44
66586;SHT30;53444;45.822;16.092;2023-09-08T07:48:25;21.73;73.35
66586;SHT30;53444;45.822;16.092;2023-09-08T07:50:51;21.82;72.90
66586;SHT30;53444;45.822;16.092;2023-09-08T07:53:18;22.04;71.51
66586;SHT30;53444;45.822;16.092;2023-09-08T07:55:44;22.26;68.64
66586;SHT30;53444;45.822;16.092;2023-09-08T07:58:11;22.57;66.32
66586;SHT30;53444;45.822;16.092;2023-09-08T08:00:37;22.74;64.55
66586;SHT30;53444;45.822;16.092;2023-09-08T08:03:04;22.83;64.28
66586;SHT30;53444;45.822;16.092;2023-09-08T08:05:33;22.99;64.02
66586;SHT30;53444;45.822;16.092;2023-09-08T08:07:59;23.12;63.95
66586;SHT30;53444;45.822;16.092;2023-09-08T08:10:26;23.30;64.57
66586;SHT30;53444;45.822;16.092;2023-09-08T08:12:52;23.35;64.55
66586;SHT30;53444;45.822;16.092;2023-09-08T08:15:20;23.41;64.04
66586;SHT30;53444;45.822;16.092;2023-09-08T08:17:47;23.57;64.99
66586;SHT30;53444;45.822;16.092;2023-09-08T08:20:13;23.61;63.09
66586;SHT30;53444;45.822;16.092;2023-09-08T08:22:45;23.71;63.22
66586;SHT30;53444;45.822;16.092;2023-09-08T08:25:11;23.72;62.40
66586;SHT30;53444;45.822;16.092;2023-09-08T08:27:39;23.76;63.54
66586;SHT30;53444;45.822;16.092;2023-09-08T08:30:06;23.85;61.71
66586;SHT30;53444;45.822;16.092;2023-09-08T08:32:33;23.99;62.00
66586;SHT30;53444;45.822;16.092;2023-09-08T08:35:00;24.10;62.94
66586;SHT30;53444;45.822;16.092;2023-09-08T08:37:26;24.16;62.88
66586;SHT30;53444;45.822;16.092;2023-09-08T08:39:54;24.30;62.29
66586;SHT30;53444;45.822;16.092;2023-09-08T08:42:21;24.33;62.07
66586;SHT30;53444;45.822;16.092;2023-09-08T08:44:48;24.39;62.10
66586;SHT30;53444;45.822;16.092;2023-09-08T08:47:16;24.49;61.01
66586;SHT30;53444;45.822;16.092;2023-09-08T08:49:43;24.56;61.51
66586;SHT30;53444;45.822;16.092;2023-09-08T08:52:12;24.74;62.44
66586;SHT30;53444;45.822;16.092;2023-09-08T08:54:39;24.85;62.36
66586;SHT30;53444;45.822;16.092;2023-09-08T08:57:09;24.92;61.21
66586;SHT30;53444;45.822;16.092;2023-09-08T08:59:36;24.92;61.40
66586;SHT30;53444;45.822;16.092;2023-09-08T09:02:03;24.91;61.26
66586;SHT30;53444;45.822;16.092;2023-09-08T09:04:31;25.02;61.83
66586;SHT30;53444;45.822;16.092;2023-09-08T09:06:58;25.04;61.22
66586;SHT30;53444;45.822;16.092;2023-09-08T09:09:24;25.14;60.33
66586;SHT30;53444;45.822;16.092;2023-09-08T09:11:51;25.29;59.32
66586;SHT30;53444;45.822;16.092;2023-09-08T09:14:19;25.32;58.92
66586;SHT30;53444;45.822;16.092;2023-09-08T09:16:47;25.52;59.14
66586;SHT30;53444;45.822;16.092;2023-09-08T09:19:18;25.65;59.52
66586;SHT30;53444;45.822;16.092;2023-09-08T09:21:51;25.69;59.51
66586;SHT30;53444;45.822;16.092;2023-09-08T09:24:29;25.92;59.33
66586;SHT30;53444;45.822;16.092;2023-09-08T09:26:56;26.07;59.58
66586;SHT30;53444;45.822;16.092;2023-09-08T09:29:24;26.12;58.76
66586;SHT30;53444;45.822;16.092;2023-09-08T09:31:52;26.18;58.39
66586;SHT30;53444;45.822;16.092;2023-09-08T09:34:20;26.43;58.67
66586;SHT30;53444;45.822;16.092;2023-09-08T09:36:51;26.51;58.62
66586;SHT30;53444;45.822;16.092;2023-09-08T09:39:18;26.67;57.56
66586;SHT30;53444;45.822;16.092;2023-09-08T09:41:49;26.79;56.32
66586;SHT30;53444;45.822;16.092;2023-09-08T09:44:19;26.91;57.29
66586;SHT30;53444;45.822;16.092;2023-09-08T09:46:52;26.89;55.00
66586;SHT30;53444;45.822;16.092;2023-09-08T09:49:21;27.20;55.58
66586;SHT30;53444;45.822;16.092;2023-09-08T09:51:53;27.29;55.94
66586;SHT30;53444;45.822;16.092;2023-09-08T09:54:19;27.23;55.44
66586;SHT30;53444;45.822;16.092;2023-09-08T09:56:48;27.32;55.04
66586;SHT30;53444;45.822;16.092;2023-09-08T09:59:25;27.50;55.66
66586;SHT30;53444;45.822;16.092;2023-09-08T10:01:59;27.51;54.75
66586;SHT30;53444;45.822;16.092;2023-09-08T10:04:29;27.77;54.81
66586;SHT30;53444;45.822;16.092;2023-09-08T10:06:57;27.81;55.70
66586;SHT30;53444;45.822;16.092;2023-09-08T10:09:24;28.12;55.42
66586;SHT30;53444;45.822;16.092;2023-09-08T10:11:54;28.28;54.94
66586;SHT30;53444;45.822;16.092;2023-09-08T10:14:21;28.25;55.62
66586;SHT30;53444;45.822;16.092;2023-09-08T10:16:49;28.41;55.55
66586;SHT30;53444;45.822;16.092;2023-09-08T10:19:20;28.63;54.73
66586;SHT30;53444;45.822;16.092;2023-09-08T10:21:47;28.55;55.47
66586;SHT30;53444;45.822;16.092;2023-09-08T10:24:15;28.63;54.97
66586;SHT30;53444;45.822;16.092;2023-09-08T10:26:58;28.65;54.44
66586;SHT30;53444;45.822;16.092;2023-09-08T10:29:27;28.82;54.93
66586;SHT30;53444;45.822;16.092;2023-09-08T10:31:57;28.82;53.90
66586;SHT30;53444;45.822;16.092;2023-09-08T10:34:26;28.82;53.10
66586;SHT30;53444;45.822;16.092;2023-09-08T10:36:53;29.19;53.44
66586;SHT30;53444;45.822;16.092;2023-09-08T10:39:29;29.33;53.30
66586;SHT30;53444;45.822;16.092;2023-09-08T10:42:28;29.51;51.64
66586;SHT30;53444;45.822;16.092;2023-09-08T10:44:59;29.47;51.57
66586;SHT30;53444;45.822;16.092;2023-09-08T10:47:54;29.54;50.58
66586;SHT30;53444;45.822;16.092;2023-09-08T10:50:30;29.68;50.56
66586;SHT30;53444;45.822;16.092;2023-09-08T10:53:08;29.88;50.54
66586;SHT30;53444;45.822;16.092;2023-09-08T10:55:39;30.04;50.04
66586;SHT30;53444;45.822;16.092;2023-09-08T10:58:09;29.86;50.57
66586;SHT30;53444;45.822;16.092;2023-09-08T11:00:46;30.08;49.85
66586;SHT30;53444;45.822;16.092;2023-09-08T11:03:14;30.26;50.80
66586;SHT30;53444;45.822;16.092;2023-09-08T11:05:45;30.36;48.80
66586;SHT30;53444;45.822;16.092;2023-09-08T11:08:11;30.44;48.79
66586;SHT30;53444;45.822;16.092;2023-09-08T11:10:41;30.37;47.95
66586;SHT30;53444;45.822;16.092;2023-09-08T11:13:10;30.56;47.76
66586;SHT30;53444;45.822;16.092;2023-09-08T11:15:37;30.91;47.33
66586;SHT30;53444;45.822;16.092;2023-09-08T11:18:06;31.06;47.60
66586;SHT30;53444;45.822;16.092;2023-09-08T11:20:34;30.95;47.50
66586;SHT30;53444;45.822;16.092;2023-09-08T11:23:03;31.45;47.54
66586;SHT30;53444;45.822;16.092;2023-09-08T11:25:31;31.11;45.78
66586;SHT30;53444;45.822;16.092;2023-09-08T11:27:58;31.25;46.08
66586;SHT30;53444;45.822;16.092;2023-09-08T11:30:26;31.22;45.76
66586;SHT30;53444;45.822;16.092;2023-09-08T11:32:53;31.37;45.56
66586;SHT30;53444;45.822;16.092;2023-09-08T11:35:19;31.37;45.05
66586;SHT30;53444;45.822;16.092;2023-09-08T11:37:47;31.68;45.24
66586;SHT30;53444;45.822;16.092;2023-09-08T11:40:16;31.69;45.39
66586;SHT30;53444;45.822;16.092;2023-09-08T11:42:45;31.76;44.74
66586;SHT30;53444;45.822;16.092;2023-09-08T11:45:12;31.61;44.80
66586;SHT30;53444;45.822;16.092;2023-09-08T11:47:41;32.03;44.96
66586;SHT30;53444;45.822;16.092;2023-09-08T11:50:09;32.19;44.52
66586;SHT30;53444;45.822;16.092;2023-09-08T11:52:41;32.30;44.15
66586;SHT30;53444;45.822;16.092;2023-09-08T11:55:08;32.50;43.75
66586;SHT30;53444;45.822;16.092;2023-09-08T11:57:37;32.17;43.81
66586;SHT30;53444;45.822;16.092;2023-09-08T12:00:05;32.01;44.81
66586;SHT30;53444;45.822;16.092;2023-09-08T12:02:34;32.23;44.36
66586;SHT30;53444;45.822;16.092;2023-09-08T12:05:02;32.34;43.62
66586;SHT30;53444;45.822;16.092;2023-09-08T12:07:29;32.70;43.60
66586;SHT30;53444;45.822;16.092;2023-09-08T12:09:56;33.05;43.32
66586;SHT30;53444;45.822;16.092;2023-09-08T12:12:24;33.15;42.72
66586;SHT30;53444;45.822;16.092;2023-09-08T12:14:52;32.92;42.35
66586;SHT30;53444;45.822;16.092;2023-09-08T12:17:20;32.88;42.57
66586;SHT30;53444;45.822;16.092;2023-09-08T12:19:50;33.25;42.07
66586;SHT30;53444;45.822;16.092;2023-09-08T12:22:16;33.39;41.90
66586;SHT30;53444;45.822;16.092;2023-09-08T12:24:49;33.52;41.32
66586;SHT30;53444;45.822;16.092;2023-09-08T12:27:16;33.35;41.90
66586;SHT30;53444;45.822;16.092;2023-09-08T12:29:53;33.82;41.80
66586;SHT30;53444;45.822;16.092;2023-09-08T12:32:20;33.49;41.20
66586;SHT30;53444;45.822;16.092;2023-09-08T12:34:46;33.36;42.05
66586;SHT30;53444;45.822;16.092;2023-09-08T12:37:13;32.88;42.74
66586;SHT30;53444;45.822;16.092;2023-09-08T12:39:40;32.80;42.64
66586;SHT30;53444;45.822;16.092;2023-09-08T12:42:06;32.64;42.50
66586;SHT30;53444;45.822;16.092;2023-09-08T12:44:33;32.49;42.53
66586;SHT30;53444;45.822;16.092;2023-09-08T12:47:01;32.50;42.91
66586;SHT30;53444;45.822;16.092;2023-09-08T12:49:28;33.08;42.64
66586;SHT30;53444;45.822;16.092;2023-09-08T12:51:54;33.56;41.65
66586;SHT30;53444;45.822;16.092;2023-09-08T12:54:21;33.66;40.53
66586;SHT30;53444;45.822;16.092;2023-09-08T12:56:54;33.38;40.49
66586;SHT30;53444;45.822;16.092;2023-09-08T12:59:21;33.29;40.92
66586;SHT30;53444;45.822;16.092;2023-09-08T13:01:47;33.69;40.63
66586;SHT30;53444;45.822;16.092;2023-09-08T13:04:15;33.28;39.90
66586;SHT30;53444;45.822;16.092;2023-09-08T13:06:42;33.48;39.78
66586;SHT30;53444;45.822;16.092;2023-09-08T13:09:08;34.00;39.91
66586;SHT30;53444;45.822;16.092;2023-09-08T13:11:35;34.03;39.95
66586;SHT30;53444;45.822;16.092;2023-09-08T13:14:01;33.52;40.60
66586;SHT30;53444;45.822;16.092;2023-09-08T13:16:28;33.82;40.73
66586;SHT30;53444;45.822;16.092;2023-09-08T13:18:55;33.39;40.17
66586;SHT30;53444;45.822;16.092;2023-09-08T13:21:26;33.73;40.65
66586;SHT30;53444;45.822;16.092;2023-09-08T13:23:52;33.31;40.02
66586;SHT30;53444;45.822;16.092;2023-09-08T13:26:19;33.72;39.97
66586;SHT30;53444;45.822;16.092;2023-09-08T13:28:45;34.03;40.16
66586;SHT30;53444;45.822;16.092;2023-09-08T13:31:15;34.04;39.68
66586;SHT30;53444;45.822;16.092;2023-09-08T13:33:42;34.20;39.89
66586;SHT30;53444;45.822;16.092;2023-09-08T13:36:08;34.64;38.57
66586;SHT30;53444;45.822;16.092;2023-09-08T13:38:36;34.70;39.33
66586;SHT30;53444;45.822;16.092;2023-09-08T13:41:03;34.34;39.82
66586;SHT30;53444;45.822;16.092;2023-09-08T13:43:29;34.70;39.43
66586;SHT30;53444;45.822;16.092;2023-09-08T13:45:56;34.26;39.34
66586;SHT30;53444;45.822;16.092;2023-09-08T13:48:23;34.27;38.68
66586;SHT30;53444;45.822;16.092;2023-09-08T13:50:49;34.50;38.14
66586;SHT30;53444;45.822;16.092;2023-09-08T13:53:16;34.27;38.38
66586;SHT30;53444;45.822;16.092;2023-09-08T13:55:44;34.07;38.82
66586;SHT30;53444;45.822;16.092;2023-09-08T13:58:10;34.34;39.20
66586;SHT30;53444;45.822;16.092;2023-09-08T14:00:37;34.68;38.56
66586;SHT30;53444;45.822;16.092;2023-09-08T14:03:04;34.84;38.29
66586;SHT30;53444;45.822;16.092;2023-09-08T14:05:31;35.25;38.78
66586;SHT30;53444;45.822;16.092;2023-09-08T14:07:58;35.55;38.26
66586;SHT30;53444;45.822;16.092;2023-09-08T14:10:24;35.24;38.36
66586;SHT30;53444;45.822;16.092;2023-09-08T14:12:52;35.36;37.83
66586;SHT30;53444;45.822;16.092;2023-09-08T14:15:19;35.90;37.51
66586;SHT30;53444;45.822;16.092;2023-09-08T14:17:46;35.57;37.12
66586;SHT30;53444;45.822;16.092;2023-09-08T14:20:12;35.86;36.76
66586;SHT30;53444;45.822;16.092;2023-09-08T14:22:39;35.79;36.61
66586;SHT30;53444;45.822;16.092;2023-09-08T14:25:06;35.70;36.45
66586;SHT30;53444;45.822;16.092;2023-09-08T14:27:33;36.58;35.74
66586;SHT30;53444;45.822;16.092;2023-09-08T14:30:02;36.86;36.24
66586;SHT30;53444;45.822;16.092;2023-09-08T14:32:29;36.74;35.40
66586;SHT30;53444;45.822;16.092;2023-09-08T14:34:56;37.42;35.85
66586;SHT30;53444;45.822;16.092;2023-09-08T14:37:22;36.11;37.42
66586;SHT30;53444;45.822;16.092;2023-09-08T14:39:49;37.37;36.26
66586;SHT30;53444;45.822;16.092;2023-09-08T14:42:16;37.50;35.38
66586;SHT30;53444;45.822;16.092;2023-09-08T14:44:42;36.94;36.13
66586;SHT30;53444;45.822;16.092;2023-09-08T14:47:10;36.54;36.58
66586;SHT30;53444;45.822;16.092;2023-09-08T14:49:38;36.14;36.60
66586;SHT30;53444;45.822;16.092;2023-09-08T14:52:05;36.60;36.18
66586;SHT30;53444;45.822;16.092;2023-09-08T14:54:31;36.60;35.57
66586;SHT30;53444;45.822;16.092;2023-09-08T14:56:58;36.82;36.14
66586;SHT30;53444;45.822;16.092;2023-09-08T14:59:27;36.61;36.09
66586;SHT30;53444;45.822;16.092;2023-09-08T15:01:54;37.08;35.73
66586;SHT30;53444;45.822;16.092;2023-09-08T15:04:23;36.86;35.80
66586;SHT30;53444;45.822;16.092;2023-09-08T15:06:49;36.99;35.89
66586;SHT30;53444;45.822;16.092;2023-09-08T15:09:16;37.30;35.22
66586;SHT30;53444;45.822;16.092;2023-09-08T15:11:42;36.82;35.14
66586;SHT30;53444;45.822;16.092;2023-09-08T15:14:09;36.81;34.98
66586;SHT30;53444;45.822;16.092;2023-09-08T15:16:36;36.79;35.10
66586;SHT30;53444;45.822;16.092;2023-09-08T15:19:02;36.17;35.66
66586;SHT30;53444;45.822;16.092;2023-09-08T15:21:30;35.92;36.18